• Join FlightAware (Why Join?)
  • Login
  • US Flag 
03:07AM EDT


 

Airport Tracker/Info


-or-


 

Live Flight TrackerFlight Track Log ✈ N81AU ✈ 24-Sep-2013 ✈ KPYP - KAUO

Flight Track Log - Related Links

Times and Time Zones

All times are in EDT time to prevent confusion due to time zone crossing. See the N81AU flight status page for this flight to view local times or setup timezone preferences in your user account.

Time Position Orientation Groundspeed Altitude Reporting Facility
EDT Latitude Longitude Course Direction KTS MPH feet Rate Location/Type
02:09PM 33.8677 -85.5832 174° South  Level Estimated
02:10PM 34.0058 -85.5750 171° South 126 145 4,600  Level Atlanta Center
02:11PM 33.9747 -85.5719 175° South 116 133 5,400 780 Climbing Atlanta Center
02:12PM 33.9414 -85.5661 172° South 116 133 6,200 720 Climbing Atlanta Center
02:13PM 33.9142 -85.5608 171° South 117 135 6,900 480 Climbing Atlanta Center
02:14PM 33.8811 -85.5503 165° South 122 140 7,200 60 Climbing Atlanta Center
02:15PM 33.8372 -85.5544 185° South 128 147 7,100 -60 Descending Atlanta Center
02:16PM 33.7975 -85.5586 185° South 145 167 7,100  Level Atlanta Center
02:17PM 33.7556 -85.5578 179° South 151 174 7,200  Climbing Atlanta Center
02:18PM 33.7139 -85.5522 174° South 151 174 7,100 -60 Descending Atlanta Center
02:19PM 33.6744 -85.5489 176° South 151 174 7,100  Level Atlanta Center
02:20PM 33.6328 -85.5458 177° South 151 174 7,100  Level Atlanta Center
02:21PM 33.5931 -85.5425 176° South 151 174 7,100  Level Atlanta Center
02:22PM 33.5533 -85.5369 173° South 151 174 7,100  Level Atlanta Center
02:23PM 33.5097 -85.5311 174° South 151 174 7,100  Level Atlanta Center
02:24PM 33.4700 -85.5281 176° South 151 174 7,100  Level Atlanta Center
02:25PM 33.4306 -85.5272 179° South 151 174 7,100  Level Atlanta Center
02:26PM 33.3950 -85.5217 173° South 151 174 7,100  Level Atlanta Center
02:27PM 33.3511 -85.5208 179° South 151 174 7,100 -60 Level Atlanta Center
02:28PM 33.3053 -85.5178 177° South 151 174 7,000 -60 Descending Atlanta Center
02:29PM 33.2656 -85.5144 176° South 156 180 7,000  Level Atlanta Center
02:30PM 33.2219 -85.5064 171° South 156 180 7,000  Level Atlanta Center
02:31PM 33.1825 -85.5008 173° South 156 180 7,000  Level Atlanta Center
02:32PM 33.1408 -85.4903 168° South 156 180 7,000 -120 Level Atlanta Center
02:33PM 33.0992 -85.4819 170° South 156 180 6,800 -420 Descending Atlanta Center
02:34PM 33.0594 -85.4764 173° South 156 180 6,200 -600 Descending Atlanta Center
02:35PM 33.0178 -85.4683 171° South 161 185 5,700 -600 Descending Atlanta Center
02:36PM 32.9761 -85.4603 171° South 161 185 5,100 -660 Descending Atlanta Center
02:38PM 32.8833 -85.4500 175° South 156 180 3,800 -660 Descending Atlanta TRACON
02:39PM 32.8500 -85.4333 157° South 139 160 3,200 -480 Descending Atlanta TRACON
02:40PM 32.8167 -85.4333 180° South 122 140 2,900 -420 Descending Atlanta TRACON
02:41PM 32.7833 -85.4333 180° South 114 131 2,400 -300 Descending Atlanta TRACON
02:42PM 32.7500 -85.4333 180° South 99 114 2,400  Level Atlanta TRACON
02:43PM 32.7333 -85.4333 180° South 97 112 2,400  Level Atlanta TRACON
02:44PM 32.7000 -85.4333 180° South 97 112 2,400 -360 Level Atlanta TRACON
02:45PM 32.6667 -85.4333 180° South 102 117 1,800 -420 Descending Atlanta TRACON
02:46PM 32.6500 -85.4333 180° South 106 122 1,600 -240 Descending Atlanta TRACON